E/V Nautilus — J8B3605 — position and weather

sailwx.info

Track history (hours):
 
Tides and Currents Weather Stations Pressure Air Temp Water Temp Dewpoint Dewpoint Depression Visibility Wind Speed Wind Dir Waves Ship Positions

Oceanographic research ship E/V Nautilus (St Vincent and the Grenadines)

Ship's website: http://www.nautiluslive.org

Last reported at 2017-Jun-23 05:00 UTC. Time now 2017-Jun-23 05:18 UTC.
Position N 49°02' W 123°26'.

; draft 5 m.

Type: Other ship. MMSI: 376404000.

Date/timePositionNaut miles runAvg speedWind from/ knotsBaromVisibWave heightAir tempDewpointWater temp
2017-Jun-23 05:00N 49°02' W 123°26'0 0.0
2017-Jun-23 04:30N 49°02' W 123°26'0 0.0
2017-Jun-23 03:57N 49°02' W 123°26'0 0.0
2017-Jun-23 03:30N 49°02' W 123°26'0 0.1
2017-Jun-23 03:00N 49°02' W 123°26'2 3.7
2017-Jun-23 02:29N 49°02' W 123°23'4 8.7
2017-Jun-23 02:00N 49°01' W 123°16'5 9.4
2017-Jun-23 01:30N 48°58' W 123°11'5 9.7
2017-Jun-23 01:00N 48°55' W 123°06'5 9.6
2017-Jun-23 00:30N 48°52' W 123°00'4 9.0
2017-Jun-23 00:00N 48°47' W 123°00'611.1
2017-Jun-22 23:30N 48°44' W 123°07'611.5
2017-Jun-22 23:00N 48°42' W 123°15'510.0
2017-Jun-22 22:30N 48°42' W 123°23'4 7.9
2017-Jun-22 22:00N 48°42' W 123°29'1 2.1
2017-Jun-22 21:30N 48°41' W 123°30'0 0.0
2017-Jun-22 21:00N 48°41' W 123°30'0 0.2
2017-Jun-22 20:30N 48°41' W 123°30'1 2.9
2017-Jun-22 20:00N 48°40' W 123°29'1 2.9
2017-Jun-22 19:30N 48°39' W 123°27'0 0.2
2017-Jun-22 19:00N 48°39' W 123°27'1 1.4
2017-Jun-22 18:30N 48°39' W 123°28'1 1.2
2017-Jun-22 18:00N 48°39' W 123°29'0 0.1
2017-Jun-22 17:30N 48°39' W 123°29'0 0.1
2017-Jun-22 17:00N 48°39' W 123°29'0 0.0
2017-Jun-22 16:30N 48°39' W 123°29'0 0.0
2017-Jun-22 16:00N 48°39' W 123°29'0 0.0
2017-Jun-22 15:30N 48°39' W 123°29'0 0.1
2017-Jun-22 15:00N 48°39' W 123°29'0 0.0
2017-Jun-22 14:30N 48°39' W 123°29'0 0.0
2017-Jun-22 13:30N 48°39' W 123°29'0 0.1
2017-Jun-22 13:00N 48°39' W 123°29'0 0.1
2017-Jun-22 12:30N 48°39' W 123°29'0 0.1
2017-Jun-22 12:00N 48°39' W 123°29'0 0.0
2017-Jun-22 11:30N 48°39' W 123°29'0 0.0
2017-Jun-22 11:00N 48°39' W 123°29'0 0.0
2017-Jun-22 10:30N 48°39' W 123°29'0 0.0
2017-Jun-22 10:00N 48°39' W 123°29'0 0.1
2017-Jun-22 09:30N 48°39' W 123°29'0 0.0
2017-Jun-22 09:00N 48°39' W 123°29'0 0.0
2017-Jun-22 08:30N 48°39' W 123°29'0 0.0
2017-Jun-22 08:00N 48°39' W 123°29'0 0.0
2017-Jun-22 07:30N 48°39' W 123°29'0 0.1
2017-Jun-22 07:00N 48°39' W 123°29'0 0.1
2017-Jun-22 06:30N 48°39' W 123°29'0 0.0
2017-Jun-22 06:00N 48°39' W 123°29'0 0.0
2017-Jun-22 05:30N 48°39' W 123°29'0 0.0
2017-Jun-22 05:00N 48°39' W 123°29'0 0.0
2017-Jun-22 04:30N 48°39' W 123°29'0 0.0
2017-Jun-22 04:00N 48°39' W 123°29'0 0.0
2017-Jun-22 03:30N 48°39' W 123°29'0 0.1
2017-Jun-22 03:00N 48°39' W 123°29'0 0.7
2017-Jun-22 02:30N 48°39' W 123°29'1 1.9
2017-Jun-22 01:59N 48°39' W 123°27'0 0.0
2017-Jun-22 01:29N 48°39' W 123°27'0 0.0
2017-Jun-22 00:59N 48°39' W 123°27'0 0.0
2017-Jun-22 00:29N 48°39' W 123°27'0 0.0
2017-Jun-21 23:59N 48°39' W 123°27'0 0.0
2017-Jun-21 23:29N 48°39' W 123°27'0 0.0
2017-Jun-21 22:59N 48°39' W 123°27'0 0.0
2017-Jun-21 22:30N 48°39' W 123°27'0 0.0
2017-Jun-21 22:01N 48°39' W 123°27'1 1.8
2017-Jun-21 21:30N 48°39' W 123°28'3 6.6
2017-Jun-21 21:00N 48°43' W 123°27'510.1
2017-Jun-21 20:30N 48°42' W 123°20'5 9.4
2017-Jun-21 20:00N 48°39' W 123°14'510.6
2017-Jun-21 19:30N 48°34' W 123°12'510.2
2017-Jun-21 19:00N 48°29' W 123°11'611.1
2017-Jun-21 18:30N 48°24' W 123°13'510.8
2017-Jun-21 18:00N 48°21' W 123°21'0 0.3
2017-Jun-21 17:30N 48°21' W 123°21'0 0.0
2017-Jun-21 17:00N 48°21' W 123°21'0 0.4
2017-Jun-21 16:30N 48°21' W 123°21'1 1.5
2017-Jun-21 16:00N 48°21' W 123°22'3 6.6
2017-Jun-21 15:30N 48°19' W 123°25'4 8.7
2017-Jun-21 15:00N 48°15' W 123°28'4 7.6
2017-Jun-21 14:30N 48°13' W 123°33'7 7.4
2017-Jun-21 13:30N 48°13' W 123°44'4 8.4
2017-Jun-21 13:00N 48°13' W 123°50'4 8.8
2017-Jun-21 12:30N 48°14' W 123°57'4 8.9
2017-Jun-21 12:00N 48°15' W 124°03'4 9.0
2017-Jun-21 11:30N 48°17' W 124°09'5 9.3
2017-Jun-21 11:00N 48°19' W 124°15'4 8.8
2017-Jun-21 10:30N 48°21' W 124°21'5 9.8
2017-Jun-21 10:00N 48°23' W 124°28'5 9.8
2017-Jun-21 09:30N 48°25' W 124°34'5 9.6
2017-Jun-21 09:00N 48°27' W 124°41'4 8.7
2017-Jun-21 08:30N 48°29' W 124°47'5 9.1
2017-Jun-21 08:00N 48°29' W 124°54'5 9.6
2017-Jun-21 07:30N 48°29' W 125°02'5 9.7
2017-Jun-21 06:58N 48°28' W 125°09'6 9.8
2017-Jun-21 06:24N 48°28' W 125°18'5 9.7
2017-Jun-21 05:55N 48°28' W 125°25'410.0
2017-Jun-21 05:30N 48°27' W 125°31'5 9.9
2017-Jun-21 05:00N 48°27' W 125°38'5 9.8
2017-Jun-21 04:30N 48°27' W 125°46'510.0
2017-Jun-21 03:59N 48°26' W 125°54'510.0
2017-Jun-21 03:29N 48°26' W 126°01'  
2017-Jun-16 02:29N 48°30' W 125°07'5 9.4
2017-Jun-16 01:55N 48°30' W 124°59'4 8.8
2017-Jun-16 01:30N 48°30' W 124°53'5 9.2
2017-Jun-16 01:00N 48°30' W 124°46'5 8.4
2017-Jun-16 00:26N 48°29' W 124°39'2 2.9
2017-Jun-15 23:53N 48°28' W 124°37'1 2.4
2017-Jun-15 23:30N 48°28' W 124°36'1 2.0
2017-Jun-15 22:58N 48°28' W 124°34'1 2.6
2017-Jun-15 22:29N 48°27' W 124°33'1 2.7
2017-Jun-15 22:00N 48°27' W 124°31'1 2.9
2017-Jun-15 21:30N 48°26' W 124°29'2 3.1
2017-Jun-15 21:00N 48°25' W 124°27'1 2.4
2017-Jun-15 20:30N 48°25' W 124°25'2 4.5
2017-Jun-15 20:00N 48°24' W 124°22'2 4.6
2017-Jun-15 19:30N 48°23' W 124°19'2 4.5
2017-Jun-15 19:00N 48°22' W 124°16'2 3.5
2017-Jun-15 18:30N 48°21' W 124°13'0 0.3
2017-Jun-15 18:00N 48°21' W 124°13'0 0.0
2017-Jun-15 17:30N 48°21' W 124°13'0 0.0
2017-Jun-15 17:00N 48°21' W 124°13'0 0.1
2017-Jun-15 16:30N 48°21' W 124°13'0 0.0
2017-Jun-15 16:00N 48°21' W 124°13'0 0.3
2017-Jun-15 15:30N 48°21' W 124°13'0 0.6
2017-Jun-15 15:00N 48°21' W 124°13'0 0.5
2017-Jun-15 14:30N 48°21' W 124°13'0 0.0
2017-Jun-15 13:30N 48°21' W 124°13'0 0.0
2017-Jun-15 13:00N 48°21' W 124°13'0 0.0
2017-Jun-15 12:30N 48°21' W 124°13'2 3.3
2017-Jun-15 11:59N 48°20' W 124°16'4 9.2
2017-Jun-15 11:30N 48°22' W 124°22'4 8.8
2017-Jun-15 11:00N 48°24' W 124°28'4 9.0
2017-Jun-15 10:30N 48°26' W 124°34'4 8.6
2017-Jun-15 10:00N 48°28' W 124°40'4 8.6
2017-Jun-15 09:30N 48°28' W 124°46'5 9.0
2017-Jun-15 09:00N 48°28' W 124°53'4 7.8
2017-Jun-15 08:30N 48°28' W 124°59'4 8.0
2017-Jun-15 08:00N 48°28' W 125°05'9 8.8
2017-Jun-15 07:00N 48°27' W 125°18'5 9.6
2017-Jun-15 06:29N 48°25' W 125°25'510.1
2017-Jun-15 05:59N 48°24' W 125°32'5 9.8
2017-Jun-15 05:29N 48°22' W 125°39'5 9.9
2017-Jun-15 05:00N 48°21' W 125°46'5 3.1
2017-Jun-15 03:16N 48°20' W 125°54'  
Track history (hours):
 
Tides and Currents Weather Stations Pressure Air Temp Water Temp Dewpoint Dewpoint Depression Visibility Wind Speed Wind Dir Waves Ship Positions

Oceanographic research ship E/V Nautilus (St Vincent and the Grenadines)

Ship's website: http://www.nautiluslive.org

Last reported at 2017-Jun-23 05:00 UTC. Time now 2017-Jun-23 05:18 UTC.
Position N 49°02' W 123°26'.

; draft 5 m.

Type: Other ship. MMSI: 376404000.

Date/timePositionNaut miles runAvg speedWind from/ knotsBaromVisibWave heightAir tempDewpointWater temp
2017-Jun-23 05:00N 49°02' W 123°26'0 0.0
2017-Jun-23 04:30N 49°02' W 123°26'0 0.0
2017-Jun-23 03:57N 49°02' W 123°26'0 0.0
2017-Jun-23 03:30N 49°02' W 123°26'0 0.1
2017-Jun-23 03:00N 49°02' W 123°26'2 3.7
2017-Jun-23 02:29N 49°02' W 123°23'4 8.7
2017-Jun-23 02:00N 49°01' W 123°16'5 9.4
2017-Jun-23 01:30N 48°58' W 123°11'5 9.7
2017-Jun-23 01:00N 48°55' W 123°06'5 9.6
2017-Jun-23 00:30N 48°52' W 123°00'4 9.0
2017-Jun-23 00:00N 48°47' W 123°00'611.1
2017-Jun-22 23:30N 48°44' W 123°07'611.5
2017-Jun-22 23:00N 48°42' W 123°15'510.0
2017-Jun-22 22:30N 48°42' W 123°23'4 7.9
2017-Jun-22 22:00N 48°42' W 123°29'1 2.1
2017-Jun-22 21:30N 48°41' W 123°30'0 0.0
2017-Jun-22 21:00N 48°41' W 123°30'0 0.2
2017-Jun-22 20:30N 48°41' W 123°30'1 2.9
2017-Jun-22 20:00N 48°40' W 123°29'1 2.9
2017-Jun-22 19:30N 48°39' W 123°27'0 0.2
2017-Jun-22 19:00N 48°39' W 123°27'1 1.4
2017-Jun-22 18:30N 48°39' W 123°28'1 1.2
2017-Jun-22 18:00N 48°39' W 123°29'0 0.1
2017-Jun-22 17:30N 48°39' W 123°29'0 0.1
2017-Jun-22 17:00N 48°39' W 123°29'0 0.0
2017-Jun-22 16:30N 48°39' W 123°29'0 0.0
2017-Jun-22 16:00N 48°39' W 123°29'0 0.0
2017-Jun-22 15:30N 48°39' W 123°29'0 0.1
2017-Jun-22 15:00N 48°39' W 123°29'0 0.0
2017-Jun-22 14:30N 48°39' W 123°29'0 0.0
2017-Jun-22 13:30N 48°39' W 123°29'0 0.1
2017-Jun-22 13:00N 48°39' W 123°29'0 0.1
2017-Jun-22 12:30N 48°39' W 123°29'0 0.1
2017-Jun-22 12:00N 48°39' W 123°29'0 0.0
2017-Jun-22 11:30N 48°39' W 123°29'0 0.0
2017-Jun-22 11:00N 48°39' W 123°29'0 0.0
2017-Jun-22 10:30N 48°39' W 123°29'0 0.0
2017-Jun-22 10:00N 48°39' W 123°29'0 0.1
2017-Jun-22 09:30N 48°39' W 123°29'0 0.0
2017-Jun-22 09:00N 48°39' W 123°29'0 0.0
2017-Jun-22 08:30N 48°39' W 123°29'0 0.0
2017-Jun-22 08:00N 48°39' W 123°29'0 0.0
2017-Jun-22 07:30N 48°39' W 123°29'0 0.1
2017-Jun-22 07:00N 48°39' W 123°29'0 0.1
2017-Jun-22 06:30N 48°39' W 123°29'0 0.0
2017-Jun-22 06:00N 48°39' W 123°29'0 0.0
2017-Jun-22 05:30N 48°39' W 123°29'0 0.0
2017-Jun-22 05:00N 48°39' W 123°29'0 0.0
2017-Jun-22 04:30N 48°39' W 123°29'0 0.0
2017-Jun-22 04:00N 48°39' W 123°29'0 0.0
2017-Jun-22 03:30N 48°39' W 123°29'0 0.1
2017-Jun-22 03:00N 48°39' W 123°29'0 0.7
2017-Jun-22 02:30N 48°39' W 123°29'1 1.9
2017-Jun-22 01:59N 48°39' W 123°27'0 0.0
2017-Jun-22 01:29N 48°39' W 123°27'0 0.0
2017-Jun-22 00:59N 48°39' W 123°27'0 0.0
2017-Jun-22 00:29N 48°39' W 123°27'0 0.0
2017-Jun-21 23:59N 48°39' W 123°27'0 0.0
2017-Jun-21 23:29N 48°39' W 123°27'0 0.0
2017-Jun-21 22:59N 48°39' W 123°27'0 0.0
2017-Jun-21 22:30N 48°39' W 123°27'0 0.0
2017-Jun-21 22:01N 48°39' W 123°27'1 1.8
2017-Jun-21 21:30N 48°39' W 123°28'3 6.6
2017-Jun-21 21:00N 48°43' W 123°27'510.1
2017-Jun-21 20:30N 48°42' W 123°20'5 9.4
2017-Jun-21 20:00N 48°39' W 123°14'510.6
2017-Jun-21 19:30N 48°34' W 123°12'510.2
2017-Jun-21 19:00N 48°29' W 123°11'611.1
2017-Jun-21 18:30N 48°24' W 123°13'510.8
2017-Jun-21 18:00N 48°21' W 123°21'0 0.3
2017-Jun-21 17:30N 48°21' W 123°21'0 0.0
2017-Jun-21 17:00N 48°21' W 123°21'0 0.4
2017-Jun-21 16:30N 48°21' W 123°21'1 1.5
2017-Jun-21 16:00N 48°21' W 123°22'3 6.6
2017-Jun-21 15:30N 48°19' W 123°25'4 8.7
2017-Jun-21 15:00N 48°15' W 123°28'4 7.6
2017-Jun-21 14:30N 48°13' W 123°33'7 7.4
2017-Jun-21 13:30N 48°13' W 123°44'4 8.4
2017-Jun-21 13:00N 48°13' W 123°50'4 8.8
2017-Jun-21 12:30N 48°14' W 123°57'4 8.9
2017-Jun-21 12:00N 48°15' W 124°03'4 9.0
2017-Jun-21 11:30N 48°17' W 124°09'5 9.3
2017-Jun-21 11:00N 48°19' W 124°15'4 8.8
2017-Jun-21 10:30N 48°21' W 124°21'5 9.8
2017-Jun-21 10:00N 48°23' W 124°28'5 9.8
2017-Jun-21 09:30N 48°25' W 124°34'5 9.6
2017-Jun-21 09:00N 48°27' W 124°41'4 8.7
2017-Jun-21 08:30N 48°29' W 124°47'5 9.1
2017-Jun-21 08:00N 48°29' W 124°54'5 9.6
2017-Jun-21 07:30N 48°29' W 125°02'5 9.7
2017-Jun-21 06:58N 48°28' W 125°09'6 9.8
2017-Jun-21 06:24N 48°28' W 125°18'5 9.7
2017-Jun-21 05:55N 48°28' W 125°25'410.0
2017-Jun-21 05:30N 48°27' W 125°31'5 9.9
2017-Jun-21 05:00N 48°27' W 125°38'5 9.8
2017-Jun-21 04:30N 48°27' W 125°46'510.0
2017-Jun-21 03:59N 48°26' W 125°54'510.0
2017-Jun-21 03:29N 48°26' W 126°01'  
2017-Jun-16 02:29N 48°30' W 125°07'5 9.4
2017-Jun-16 01:55N 48°30' W 124°59'4 8.8
2017-Jun-16 01:30N 48°30' W 124°53'5 9.2
2017-Jun-16 01:00N 48°30' W 124°46'5 8.4
2017-Jun-16 00:26N 48°29' W 124°39'2 2.9
2017-Jun-15 23:53N 48°28' W 124°37'1 2.4
2017-Jun-15 23:30N 48°28' W 124°36'1 2.0
2017-Jun-15 22:58N 48°28' W 124°34'1 2.6
2017-Jun-15 22:29N 48°27' W 124°33'1 2.7
2017-Jun-15 22:00N 48°27' W 124°31'1 2.9
2017-Jun-15 21:30N 48°26' W 124°29'2 3.1
2017-Jun-15 21:00N 48°25' W 124°27'1 2.4
2017-Jun-15 20:30N 48°25' W 124°25'2 4.5
2017-Jun-15 20:00N 48°24' W 124°22'2 4.6
2017-Jun-15 19:30N 48°23' W 124°19'2 4.5
2017-Jun-15 19:00N 48°22' W 124°16'2 3.5
2017-Jun-15 18:30N 48°21' W 124°13'0 0.3
2017-Jun-15 18:00N 48°21' W 124°13'0 0.0
2017-Jun-15 17:30N 48°21' W 124°13'0 0.0
2017-Jun-15 17:00N 48°21' W 124°13'0 0.1
2017-Jun-15 16:30N 48°21' W 124°13'0 0.0
2017-Jun-15 16:00N 48°21' W 124°13'0 0.3
2017-Jun-15 15:30N 48°21' W 124°13'0 0.6
2017-Jun-15 15:00N 48°21' W 124°13'0 0.5
2017-Jun-15 14:30N 48°21' W 124°13'0 0.0
2017-Jun-15 13:30N 48°21' W 124°13'0 0.0
2017-Jun-15 13:00N 48°21' W 124°13'0 0.0
2017-Jun-15 12:30N 48°21' W 124°13'2 3.3
2017-Jun-15 11:59N 48°20' W 124°16'4 9.2
2017-Jun-15 11:30N 48°22' W 124°22'4 8.8
2017-Jun-15 11:00N 48°24' W 124°28'4 9.0
2017-Jun-15 10:30N 48°26' W 124°34'4 8.6
2017-Jun-15 10:00N 48°28' W 124°40'4 8.6
2017-Jun-15 09:30N 48°28' W 124°46'5 9.0
2017-Jun-15 09:00N 48°28' W 124°53'4 7.8
2017-Jun-15 08:30N 48°28' W 124°59'4 8.0
2017-Jun-15 08:00N 48°28' W 125°05'9 8.8
2017-Jun-15 07:00N 48°27' W 125°18'5 9.6
2017-Jun-15 06:29N 48°25' W 125°25'510.1
2017-Jun-15 05:59N 48°24' W 125°32'5 9.8
2017-Jun-15 05:29N 48°22' W 125°39'5 9.9
2017-Jun-15 05:00N 48°21' W 125°46'5 3.1
2017-Jun-15 03:16N 48°20' W 125°54'  

Dump ship's entire track history